Time;durP1;ratioP1;P1;durP2;ratioP2;P2;SDS_P1;SDS_P2;PMS_P1;PMS_P2;Temp;Humidity;BMP_temperature;BMP_pressure;BME280_temperature;BME280_humidity;BME280_pressure;Samples;Min_cycle;Max_cycle;Signal;HPM_P1;HPM_P2
2022/09/22 00:00:11;;;;;;;6.47;5.87;;;;;;;10.27;86.45;95059.50;5054227;28;21025;-83
2022/09/22 00:02:38;;;;;;;9.20;7.47;;;;;;;10.25;86.02;95051.75;5054785;28;20547;-85
2022/09/22 00:05:05;;;;;;;11.27;6.77;;;;;;;10.24;85.90;95057.94;5054901;28;20939;-85
2022/09/22 00:07:32;;;;;;;10.30;6.90;;;;;;;10.14;86.48;95047.34;5055063;28;20966;-85
2022/09/22 00:09:59;;;;;;;6.13;5.73;;;;;;;10.22;86.65;95062.50;5055210;28;20438;-85
2022/09/22 00:12:26;;;;;;;7.80;6.97;;;;;;;10.21;86.30;95060.81;5054820;28;20446;-81
2022/09/22 00:14:53;;;;;;;7.77;6.93;;;;;;;10.16;86.56;95055.91;5055140;28;20430;-85
2022/09/22 00:17:22;;;;;;;8.57;6.93;;;;;;;10.19;86.35;95049.59;5054959;28;20427;-84
2022/09/22 00:19:49;;;;;;;7.70;7.00;;;;;;;10.16;86.67;95049.84;5055284;28;20441;-84
2022/09/22 00:22:15;;;;;;;6.13;5.57;;;;;;;10.06;87.19;95041.03;5054847;28;20475;-84
2022/09/22 00:24:44;;;;;;;7.73;6.27;;;;;;;10.03;86.40;95043.91;5054749;28;20797;-84
2022/09/22 00:27:11;;;;;;;7.80;6.57;;;;;;;9.97;87.38;95054.88;5054616;28;20624;-81
2022/09/22 00:29:37;;;;;;;10.30;7.20;;;;;;;9.93;87.20;95049.06;5036534;28;20445;-84
2022/09/22 00:32:05;;;;;;;8.23;6.67;;;;;;;9.90;87.83;95049.31;5054826;28;20437;-84
2022/09/22 00:34:33;;;;;;;7.40;6.70;;;;;;;9.95;87.59;95052.38;5054436;28;20914;-84
2022/09/22 00:37:00;;;;;;;7.30;6.60;;;;;;;10.01;88.02;95056.31;5054512;28;20458;-85
2022/09/22 00:39:29;;;;;;;7.70;6.70;;;;;;;9.96;87.84;95055.84;5054272;28;20797;-84
2022/09/22 00:41:56;;;;;;;6.60;6.00;;;;;;;9.86;87.64;95046.09;5054813;28;20438;-83
2022/09/22 00:44:34;;;;;;;7.33;6.00;;;;;;;9.87;88.05;95047.75;5053864;28;20476;-81
2022/09/22 00:47:16;;;;;;;6.40;5.80;;;;;;;9.92;88.04;95056.09;5053580;28;20459;-84
2022/09/22 00:49:49;;;;;;;7.00;6.37;;;;;;;9.98;87.84;95051.31;5053332;28;20489;-84
2022/09/22 00:52:20;;;;;;;6.60;6.00;;;;;;;9.96;87.39;95050.59;5053387;28;20457;-84
2022/09/22 00:54:48;;;;;;;6.57;5.87;;;;;;;10.03;87.61;95057.00;5053876;28;20447;-84
2022/09/22 00:57:19;;;;;;;6.57;5.97;;;;;;;10.07;87.44;95058.44;5054728;28;20423;-84
2022/09/22 00:59:48;;;;;;;7.33;6.60;;;;;;;10.08;86.87;95047.81;5054025;28;20451;-83
2022/09/22 01:02:15;;;;;;;5.90;5.37;;;;;;;10.12;86.25;95056.25;5053683;28;20437;-85
2022/09/22 01:04:42;;;;;;;7.10;6.40;;;;;;;10.14;86.53;95051.75;5053810;28;20941;-84
2022/09/22 01:07:12;;;;;;;5.63;5.13;;;;;;;10.16;86.78;95052.47;5054192;28;20450;-84
2022/09/22 01:09:39;;;;;;;6.60;5.73;;;;;;;10.17;86.80;95046.25;5053456;28;20520;-83
2022/09/22 01:12:06;;;;;;;8.00;6.73;;;;;;;10.18;86.15;95050.56;5052774;28;20442;-83
2022/09/22 01:14:46;;;;;;;6.27;5.67;;;;;;;10.19;86.15;95049.59;5034372;28;20434;-81
2022/09/22 01:17:24;;;;;;;6.03;5.30;;;;;;;10.19;86.82;95047.81;5052847;28;20489;-84
2022/09/22 01:20:22;;;;;;;7.00;6.30;;;;;;;10.27;86.27;95047.22;5053015;28;20453;-84
2022/09/22 01:23:18;;;;;;;6.10;5.37;;;;;;;10.34;86.55;95053.63;4992013;28;21019;-81
2022/09/22 01:26:32;;;;;;;6.17;5.67;;;;;;;10.35;84.71;95049.19;4992772;28;20817;-85
2022/09/22 01:29:31;;;;;;;5.53;5.03;;;;;;;10.43;85.23;95052.06;4915505;29;20484;-82
2022/09/22 01:38:52;;;;;;;7.00;6.00;;;;;;;10.50;83.41;95048.78;4858211;29;20441;-84
2022/09/22 01:41:24;;;;;;;5.80;5.27;;;;;;;10.46;84.08;95050.00;4859366;29;20460;-84
2022/09/22 01:43:56;;;;;;;6.70;6.00;;;;;;;10.34;83.93;95045.75;4859107;29;20503;-83
2022/09/22 01:46:27;;;;;;;10.50;6.23;;;;;;;10.32;84.00;95045.03;4859138;29;20560;-84
2022/09/22 01:48:58;;;;;;;6.83;6.23;;;;;;;10.24;84.52;95043.03;4859111;29;20523;-85
2022/09/22 01:51:30;;;;;;;6.60;5.60;;;;;;;10.12;85.37;95036.16;4858899;29;20473;-84
2022/09/22 01:54:05;;;;;;;6.73;6.20;;;;;;;10.18;85.45;95029.56;4814491;29;20470;-84
2022/09/22 01:56:36;;;;;;;6.40;5.90;;;;;;;10.31;85.33;95039.91;4859281;29;20463;-85
2022/09/22 01:59:07;;;;;;;10.10;6.27;;;;;;;10.43;85.24;95045.00;4862388;29;20456;-85
2022/09/22 02:01:38;;;;;;;6.30;5.70;;;;;;;10.54;84.55;95050.19;4896382;29;20852;-85
2022/09/22 02:04:09;;;;;;;7.70;6.10;;;;;;;10.60;84.13;95037.53;4895984;29;20510;-85
2022/09/22 02:06:43;;;;;;;5.60;5.10;;;;;;;10.73;83.93;95048.69;4928522;29;20932;-82
2022/09/22 02:09:15;;;;;;;5.60;5.20;;;;;;;10.71;82.74;95048.00;5009131;28;20907;-84
2022/09/22 02:11:42;;;;;;;6.20;5.63;;;;;;;10.72;83.33;95049.66;5057452;28;20455;-81
2022/09/22 02:14:10;;;;;;;7.93;5.10;;;;;;;10.70;82.73;95057.66;5057489;28;20909;-82
2022/09/22 02:16:37;;;;;;;9.83;5.87;;;;;;;10.73;83.10;95054.78;5022223;28;21013;-83
2022/09/22 02:19:10;;;;;;;5.80;5.00;;;;;;;10.72;82.38;95052.28;5057329;28;20815;-85
2022/09/22 02:21:39;;;;;;;6.37;5.80;;;;;;;10.69;81.28;95039.38;5057213;28;20856;-84
2022/09/22 02:24:06;;;;;;;5.20;4.70;;;;;;;10.74;81.49;95053.81;5056995;28;20488;-84
2022/09/22 02:26:36;;;;;;;5.27;4.87;;;;;;;10.67;82.14;95038.69;5057055;28;20446;-85
2022/09/22 02:29:07;;;;;;;6.30;5.60;;;;;;;10.75;81.58;95046.78;5056900;28;20446;-85
2022/09/22 02:31:37;;;;;;;5.60;5.10;;;;;;;10.72;81.69;95047.03;5056847;28;20435;-83
2022/09/22 02:34:07;;;;;;;5.53;5.03;;;;;;;10.71;81.67;95053.25;5056505;28;20435;-84
2022/09/22 02:36:43;;;;;;;5.10;4.60;;;;;;;10.69;81.36;95052.50;5057282;28;20433;-84
2022/09/22 02:39:17;;;;;;;5.70;5.10;;;;;;;10.63;82.15;95053.03;5057110;28;20800;-84
2022/09/22 02:42:08;;;;;;;6.53;4.83;;;;;;;10.50;81.97;95043.53;5057228;28;20523;-84
2022/09/22 02:44:43;;;;;;;5.60;5.03;;;;;;;10.52;81.66;95060.00;5033277;28;20542;-84
2022/09/22 02:47:14;;;;;;;5.07;4.67;;;;;;;10.46;81.08;95055.25;5034452;28;20494;-84
2022/09/22 02:49:44;;;;;;;5.83;5.03;;;;;;;10.46;81.25;95055.25;5034827;28;20455;-84
2022/09/22 02:52:14;;;;;;;6.00;5.40;;;;;;;10.31;80.73;95038.13;5034273;28;20465;-83
2022/09/22 02:54:41;;;;;;;6.17;5.30;;;;;;;10.44;80.24;95057.19;5034384;28;20457;-83
2022/09/22 02:57:09;;;;;;;8.10;5.43;;;;;;;10.46;80.34;95057.03;5034333;28;20493;-83
2022/09/22 02:59:36;;;;;;;6.20;5.60;;;;;;;10.40;81.01;95066.22;5034091;28;20439;-81
2022/09/22 03:02:03;;;;;;;6.30;5.63;;;;;;;10.36;81.02;95056.94;5034195;28;20451;-83
2022/09/22 03:04:30;;;;;;;4.93;4.53;;;;;;;10.41;81.72;95061.84;5033968;28;20483;-83
2022/09/22 03:06:57;;;;;;;4.80;4.40;;;;;;;10.39;80.68;95067.19;5034342;28;20455;-83
2022/09/22 03:09:24;;;;;;;9.13;5.00;;;;;;;10.39;81.81;95066.34;5034434;28;20493;-88
2022/09/22 03:11:50;;;;;;;6.70;5.60;;;;;;;10.31;80.94;95061.72;5034163;28;20443;-79
2022/09/22 03:14:19;;;;;;;7.90;5.40;;;;;;;10.27;80.90;95052.44;5034358;28;20447;-81
2022/09/22 03:16:45;;;;;;;6.00;5.37;;;;;;;10.27;81.33;95054.25;5017585;28;20442;-81
2022/09/22 03:19:12;;;;;;;5.80;5.10;;;;;;;10.29;80.98;95060.19;5056489;28;20455;-81
2022/09/22 03:21:39;;;;;;;7.07;5.20;;;;;;;10.26;80.87;95066.53;5055447;28;20435;-81
2022/09/22 03:24:06;;;;;;;6.73;6.23;;;;;;;10.26;81.35;95065.69;5053964;28;20978;-81
2022/09/22 03:26:33;;;;;;;5.13;4.63;;;;;;;10.21;80.28;95061.66;5055857;28;20462;-83
2022/09/22 03:29:00;;;;;;;6.63;6.00;;;;;;;10.09;81.76;95059.97;5020996;28;20785;-82
2022/09/22 03:31:28;;;;;;;8.00;6.40;;;;;;;10.07;83.29;95061.03;5055924;28;20457;-81
2022/09/22 03:33:55;;;;;;;8.40;5.90;;;;;;;10.02;84.56;95052.72;5055476;28;20454;-81
2022/09/22 03:36:22;;;;;;;8.03;6.93;;;;;;;9.96;86.50;95054.06;5055673;28;20956;-82
2022/09/22 03:38:50;;;;;;;7.90;7.17;;;;;;;10.01;87.07;95054.50;5056246;28;20453;-82
2022/09/22 03:41:17;;;;;;;10.03;8.93;;;;;;;10.01;87.85;95058.94;5055599;28;21183;-81
2022/09/22 03:43:44;;;;;;;8.63;7.83;;;;;;;10.04;88.04;95050.81;5055713;28;20482;-81
2022/09/22 03:46:12;;;;;;;11.17;8.53;;;;;;;10.14;87.88;95057.00;5054001;28;20921;-80
2022/09/22 03:48:41;;;;;;;9.97;9.07;;;;;;;10.03;88.66;95043.91;5055882;28;20458;-86
2022/09/22 03:51:07;;;;;;;8.33;7.53;;;;;;;9.95;88.88;95049.75;5055523;28;20481;-82
2022/09/22 03:53:35;;;;;;;9.30;8.33;;;;;;;9.81;88.71;95056.09;5055785;28;20458;-82
2022/09/22 03:56:07;;;;;;;9.53;8.23;;;;;;;9.69;89.57;95046.59;5055732;28;20925;-82
2022/09/22 03:58:34;;;;;;;10.23;9.10;;;;;;;9.65;90.43;95057.44;5055795;28;20445;-82
2022/09/22 04:01:01;;;;;;;9.03;8.13;;;;;;;9.63;90.57;95055.75;5056070;28;20474;-80
2022/09/22 04:03:28;;;;;;;8.97;8.07;;;;;;;9.56;89.98;95059.00;5055185;28;20535;-81
2022/09/22 04:05:56;;;;;;;10.53;8.53;;;;;;;10.73;100.00;95069.69;5020804;28;20496;-83
2022/09/22 04:08:23;;;;;;;9.47;7.70;;;;;;;11.82;100.00;95069.19;5055186;28;20439;-82
2022/09/22 04:10:50;;;;;;;8.27;7.47;;;;;;;12.00;87.95;95084.22;5055354;28;20464;-81
2022/09/22 04:13:17;;;;;;;8.87;7.70;;;;;;;11.97;84.13;95088.94;5055405;28;20447;-80
2022/09/22 04:15:45;;;;;;;10.00;8.00;;;;;;;11.71;83.19;95091.16;5055298;28;20521;-81
2022/09/22 04:18:13;;;;;;;8.73;7.53;;;;;;;11.59;83.80;95090.41;5054641;28;20460;-81
2022/09/22 04:20:41;;;;;;;8.20;7.47;;;;;;;11.39;83.08;95089.47;5055387;28;20472;-81
2022/09/22 04:23:10;;;;;;;8.23;7.57;;;;;;;11.12;84.53;95092.63;5003927;28;20456;-80
2022/09/22 04:25:37;;;;;;;12.17;8.23;;;;;;;10.77;85.78;95081.59;5054911;28;20443;-80
2022/09/22 04:28:04;;;;;;;8.03;7.27;;;;;;;10.57;87.25;95080.59;5055042;28;20439;-81
2022/09/22 04:30:31;;;;;;;10.30;9.17;;;;;;;10.28;87.71;95075.09;5055069;28;20443;-81
2022/09/22 04:32:59;;;;;;;8.47;7.60;;;;;;;10.11;88.08;95071.16;5054347;28;20449;-80
2022/09/22 04:35:27;;;;;;;7.93;7.23;;;;;;;9.84;89.76;95071.59;5054750;28;20486;-81
2022/09/22 04:37:54;;;;;;;9.60;8.30;;;;;;;9.77;91.11;95072.19;5020351;28;20929;-80
2022/09/22 04:40:24;;;;;;;9.27;8.30;;;;;;;9.75;91.56;95077.53;5054930;28;20473;-80
2022/09/22 04:42:51;;;;;;;9.50;8.60;;;;;;;9.79;91.56;95072.88;5054806;28;20548;-81
2022/09/22 04:45:18;;;;;;;11.20;8.37;;;;;;;9.80;91.40;95080.63;5054131;28;20528;-80
2022/09/22 04:47:45;;;;;;;8.23;7.50;;;;;;;9.82;91.89;95081.34;5054918;28;20445;-80
2022/09/22 04:50:11;;;;;;;10.27;8.73;;;;;;;9.91;92.12;95085.03;5019330;28;20488;-80
2022/09/22 04:52:38;;;;;;;9.50;8.07;;;;;;;9.94;91.26;95083.00;5054593;28;20454;-80
2022/09/22 04:55:06;;;;;;;11.70;8.60;;;;;;;11.11;100.00;95083.09;5054347;28;20436;-85
2022/09/22 04:57:34;;;;;;;8.90;8.00;;;;;;;11.87;100.00;95083.63;5056698;28;20498;-87
2022/09/22 05:00:02;;;;;;;11.87;8.30;;;;;;;12.08;86.33;95094.06;5054332;28;20885;-84
2022/09/22 05:02:29;;;;;;;10.77;7.70;;;;;;;11.90;83.12;95095.69;5019669;28;20452;-83
2022/09/22 05:04:56;;;;;;;8.53;7.63;;;;;;;11.57;82.85;95092.34;5054505;28;20479;-82
2022/09/22 05:07:22;;;;;;;10.60;8.53;;;;;;;11.31;84.32;95093.72;5018255;28;20802;-80
2022/09/22 05:09:49;;;;;;;8.33;7.50;;;;;;;11.05;85.27;95096.72;5018914;28;20754;-83
2022/09/22 05:12:16;;;;;;;9.53;8.60;;;;;;;10.95;86.73;95101.06;5054259;28;20460;-83
2022/09/22 05:14:45;;;;;;;10.97;8.50;;;;;;;10.80;87.37;95091.84;5036034;28;20462;-81
2022/09/22 05:17:12;;;;;;;9.13;8.23;;;;;;;10.65;86.82;95090.47;5054004;28;20434;-81
2022/09/22 05:19:39;;;;;;;9.83;7.73;;;;;;;10.71;88.24;95095.25;5058344;28;20508;-81
2022/09/22 05:22:06;;;;;;;12.50;7.13;;;;;;;10.75;87.76;95097.47;5063051;28;20464;-82
2022/09/22 05:24:33;;;;;;;7.60;6.90;;;;;;;10.76;86.23;95100.94;5053531;28;20474;-82
2022/09/22 05:26:59;;;;;;;9.20;7.30;;;;;;;10.84;85.33;95101.13;5054278;28;20440;-86
2022/09/22 05:29:26;;;;;;;8.40;6.93;;;;;;;10.80;84.75;95097.09;5053454;28;21044;-86
2022/09/22 05:31:55;;;;;;;9.40;6.20;;;;;;;10.89;84.80;95095.50;5053979;28;20463;-82
2022/09/22 05:34:22;;;;;;;8.83;7.93;;;;;;;10.86;85.28;95100.03;5053833;28;20453;-82
2022/09/22 05:36:48;;;;;;;9.33;8.27;;;;;;;10.89;86.76;95100.75;5052052;28;20462;-81
2022/09/22 05:39:15;;;;;;;12.67;8.23;;;;;;;10.96;86.56;95097.47;5053364;28;21555;-82
2022/09/22 05:41:42;;;;;;;10.17;9.00;;;;;;;11.05;87.58;95096.72;5053253;28;20926;-81
2022/09/22 05:44:09;;;;;;;19.17;8.90;;;;;;;11.24;87.46;95096.00;5052526;28;20488;-81
2022/09/22 05:46:35;;;;;;;9.40;8.50;;;;;;;11.26;86.02;95083.56;5053331;28;20455;-81
2022/09/22 05:49:04;;;;;;;8.33;7.63;;;;;;;11.44;85.10;95102.22;5053627;28;20451;-82
2022/09/22 05:51:30;;;;;;;8.50;7.70;;;;;;;11.52;83.72;95102.38;5053495;28;20953;-81
2022/09/22 05:53:57;;;;;;;8.50;7.53;;;;;;;11.80;85.12;95106.16;5055297;28;20459;-82
2022/09/22 05:56:24;;;;;;;10.33;9.03;;;;;;;11.74;82.44;95109.28;5052132;28;20445;-82
2022/09/22 05:58:51;;;;;;;8.93;8.13;;;;;;;11.71;82.93;95101.66;5052113;28;20447;-81
2022/09/22 06:01:18;;;;;;;8.37;7.67;;;;;;;11.68;83.94;95100.13;5052209;28;20460;-81
2022/09/22 06:03:45;;;;;;;10.70;8.90;;;;;;;11.60;83.44;95096.50;5051776;28;20478;-82
2022/09/22 06:06:13;;;;;;;9.20;8.30;;;;;;;11.63;84.05;95097.06;5052182;28;20435;-81
2022/09/22 06:08:40;;;;;;;8.97;8.10;;;;;;;11.63;84.35;95096.25;5052417;28;20476;-81
2022/09/22 06:11:07;;;;;;;9.80;8.17;;;;;;;12.05;85.46;95092.53;5052086;28;20450;-81
2022/09/22 06:13:34;;;;;;;9.20;8.30;;;;;;;12.53;80.97;95094.44;5017164;28;20453;-81
2022/09/22 06:16:01;;;;;;;8.70;7.83;;;;;;;12.86;78.01;95093.22;5051995;28;20444;-82
2022/09/22 06:18:30;;;;;;;9.63;8.73;;;;;;;13.24;77.04;95096.81;5017105;28;20777;-82
2022/09/22 06:20:58;;;;;;;7.43;6.40;;;;;;;13.53;74.51;95092.31;5051924;28;20450;-81
2022/09/22 06:23:26;;;;;;;9.40;7.13;;;;;;;13.66;74.75;95101.72;5051912;28;20449;-81
2022/09/22 06:25:57;;;;;;;7.63;6.93;;;;;;;13.60;75.43;95088.16;5051872;28;20535;-81
2022/09/22 06:28:23;;;;;;;8.63;7.83;;;;;;;13.63;74.14;95092.31;5051619;28;20533;-81
2022/09/22 06:30:50;;;;;;;6.97;6.13;;;;;;;13.70;73.30;95093.38;5052083;28;20989;-82
2022/09/22 06:33:18;;;;;;;7.97;6.87;;;;;;;13.55;82.74;95086.88;5051892;28;21143;-82
2022/09/22 06:35:45;;;;;;;7.43;6.80;;;;;;;13.81;73.45;95085.28;5052636;28;20460;-82
2022/09/22 06:38:14;;;;;;;7.53;6.93;;;;;;;13.46;75.78;95087.75;5052279;28;20447;-81
2022/09/22 06:40:43;;;;;;;6.67;6.00;;;;;;;13.19;74.37;95084.06;5052650;28;20445;-81
2022/09/22 06:43:21;;;;;;;8.00;6.80;;;;;;;13.08;75.50;95099.19;5052335;28;20457;-81
2022/09/22 06:45:49;;;;;;;7.03;6.33;;;;;;;13.33;74.45;95094.19;5052190;28;20485;-82
2022/09/22 06:48:16;;;;;;;7.07;6.37;;;;;;;13.11;74.96;95093.63;5052745;28;20445;-83
2022/09/22 06:50:48;;;;;;;8.40;7.13;;;;;;;12.98;75.06;95086.81;5052865;28;20507;-84
2022/09/22 06:53:16;;;;;;;6.60;6.00;;;;;;;13.08;75.33;95091.28;5053437;28;20472;-81
2022/09/22 06:55:45;;;;;;;7.67;6.23;;;;;;;13.14;75.68;95086.25;5055450;28;20931;-80
2022/09/22 06:58:12;;;;;;;9.60;7.97;;;;;;;13.29;77.81;95078.78;5056492;28;20460;-84
2022/09/22 07:00:41;;;;;;;9.30;8.40;;;;;;;13.11;74.70;95091.00;5056710;28;20923;-83
2022/09/22 07:03:16;;;;;;;8.33;7.10;;;;;;;13.08;74.93;95093.91;5056715;28;20481;-82
2022/09/22 07:05:52;;;;;;;10.10;7.60;;;;;;;13.15;74.03;95090.56;5056878;28;20481;-81
2022/09/22 07:08:19;;;;;;;11.00;6.90;;;;;;;12.98;75.16;95088.63;5021965;28;20450;-82
2022/09/22 07:10:52;;;;;;;8.83;8.10;;;;;;;13.16;74.92;95083.50;5056389;28;20450;-82
2022/09/22 07:13:19;;;;;;;8.63;7.73;;;;;;;13.31;74.91;95080.31;5054424;28;20503;-82
2022/09/22 07:15:45;;;;;;;9.57;6.20;;;;;;;13.67;74.24;95098.13;5056568;28;20461;-83
2022/09/22 07:18:13;;;;;;;9.60;6.50;;;;;;;13.66;73.07;95088.53;5056525;28;20956;-79
2022/09/22 07:20:40;;;;;;;7.10;6.40;;;;;;;13.43;72.75;95078.34;5056813;28;20473;-83
2022/09/22 07:23:10;;;;;;;9.27;7.50;;;;;;;13.35;74.23;95083.50;5056293;28;20450;-82
2022/09/22 07:25:37;;;;;;;9.33;7.30;;;;;;;13.34;73.94;95092.38;5055834;28;20486;-82
2022/09/22 07:28:05;;;;;;;7.73;7.03;;;;;;;13.28;73.54;95075.31;5055871;28;20450;-82
2022/09/22 07:30:35;;;;;;;7.10;6.40;;;;;;;13.35;72.95;95086.13;5055849;28;20441;-82
2022/09/22 07:33:01;;;;;;;7.90;7.17;;;;;;;13.60;72.40;95098.69;5055913;28;20791;-80
2022/09/22 07:35:28;;;;;;;8.53;7.70;;;;;;;13.83;71.45;95087.78;5055492;28;21150;-81
2022/09/22 07:37:58;;;;;;;6.40;5.80;;;;;;;14.13;70.25;95095.41;5055385;28;20485;-81
2022/09/22 07:40:25;;;;;;;6.90;6.20;;;;;;;14.40;68.56;95091.09;5054259;28;20454;-80
2022/09/22 07:42:51;;;;;;;7.83;7.03;;;;;;;14.61;68.10;95102.25;5054097;28;20442;-81
2022/09/22 07:45:20;;;;;;;11.37;8.13;;;;;;;14.45;69.13;95102.06;5053814;28;20481;-80
2022/09/22 07:50:31;;;;;;;7.33;6.63;;;;;;;14.76;66.76;95097.31;5054019;28;20441;-80
2022/09/22 07:52:58;;;;;;;7.33;6.63;;;;;;;14.83;65.94;95101.81;5051844;28;20432;-81
2022/09/22 07:55:25;;;;;;;6.27;5.67;;;;;;;14.97;65.98;95105.75;5054440;28;20816;-80
2022/09/22 07:57:57;;;;;;;15.00;5.63;;;;;;;14.93;66.19;95099.09;5054195;28;20507;-81
2022/09/22 08:00:26;;;;;;;8.60;6.10;;;;;;;15.17;65.71;95104.59;5054533;28;20437;-80
2022/09/22 08:02:55;;;;;;;6.87;6.23;;;;;;;15.14;65.63;95112.84;5053968;28;20466;-81
2022/09/22 08:05:23;;;;;;;7.43;6.17;;;;;;;15.35;66.06;95104.59;5053971;28;20491;-81
2022/09/22 08:07:49;;;;;;;6.90;6.20;;;;;;;15.63;64.47;95099.19;5053455;28;20812;-81
2022/09/22 08:10:17;;;;;;;7.27;6.50;;;;;;;15.86;63.64;95102.13;5054064;28;20973;-81
2022/09/22 08:12:43;;;;;;;6.57;5.97;;;;;;;15.88;63.39;95102.78;5054131;28;20928;-82
2022/09/22 08:15:11;;;;;;;6.37;5.77;;;;;;;15.80;62.79;95093.00;5051537;28;20438;-81
2022/09/22 08:17:40;;;;;;;5.90;5.40;;;;;;;15.89;61.19;95096.50;5053915;28;20981;-80
2022/09/22 08:20:08;;;;;;;6.00;5.50;;;;;;;15.94;61.98;95084.47;5053867;28;20497;-80
2022/09/22 08:22:35;;;;;;;6.60;5.87;;;;;;;16.11;61.48;95102.09;5053645;28;20653;-81
2022/09/22 08:25:02;;;;;;;6.90;5.00;;;;;;;16.15;59.83;95091.16;5053499;28;20862;-81
2022/09/22 08:27:29;;;;;;;5.80;5.30;;;;;;;16.25;59.65;95089.25;5053774;28;20477;-81
2022/09/22 08:29:56;;;;;;;6.43;4.60;;;;;;;15.97;60.82;95081.53;5053974;28;20547;-81
2022/09/22 08:32:25;;;;;;;6.27;4.30;;;;;;;16.08;60.23;95086.53;5053588;28;20952;-81
2022/09/22 08:34:56;;;;;;;5.10;3.80;;;;;;;16.15;57.79;95080.59;5018979;28;20559;-81
2022/09/22 08:37:26;;;;;;;5.00;4.13;;;;;;;15.87;60.90;95079.97;5053506;28;20528;-81
2022/09/22 08:39:53;;;;;;;5.60;5.10;;;;;;;15.69;59.68;95080.88;5053512;28;20453;-81
2022/09/22 08:42:22;;;;;;;4.80;4.40;;;;;;;15.69;60.75;95075.59;5053443;28;20443;-82
2022/09/22 08:44:57;;;;;;;5.20;4.20;;;;;;;15.87;61.79;95067.56;5052762;28;20477;-82
2022/09/22 08:53:22;;;;;;;4.73;3.30;;;;;;;16.53;57.53;95074.78;5031503;28;20794;-80
2022/09/22 08:55:55;;;;;;;2.67;2.47;;;;;;;16.70;53.84;95065.88;4984138;28;20454;-83
2022/09/22 08:58:36;;;;;;;5.13;2.70;;;;;;;16.75;52.89;95068.03;5031874;28;20941;-82
2022/09/22 09:01:17;;;;;;;2.07;1.87;;;;;;;16.83;51.98;95069.91;5032345;28;20438;-82
2022/09/22 09:03:56;;;;;;;3.30;3.10;;;;;;;17.00;53.08;95051.16;5031834;28;20473;-80
2022/09/22 09:06:34;;;;;;;4.67;4.37;;;;;;;17.23;54.72;95050.50;4985368;28;20493;-81
2022/09/22 09:09:24;;;;;;;6.23;4.27;;;;;;;17.53;54.54;95046.31;5031990;28;20446;-79
2022/09/22 09:12:09;;;;;;;4.50;4.10;;;;;;;17.78;54.92;95052.44;4983094;28;20926;-81
2022/09/22 09:15:03;;;;;;;4.80;4.40;;;;;;;17.59;52.87;95051.78;5031913;28;20435;-83
2022/09/22 09:17:34;;;;;;;7.00;3.43;;;;;;;17.10;52.61;95056.31;5031589;28;20443;-80
2022/09/22 09:20:12;;;;;;;3.90;3.60;;;;;;;16.85;53.90;95055.47;5031843;28;20530;-81
2022/09/22 09:22:44;;;;;;;4.33;4.00;;;;;;;17.16;53.92;95053.00;5032014;28;20460;-82
2022/09/22 09:25:21;;;;;;;3.60;3.30;;;;;;;17.42;51.93;95060.78;5047883;28;21006;-78
2022/09/22 09:27:55;;;;;;;3.20;3.00;;;;;;;17.58;52.01;95050.13;5054314;28;20440;-82
2022/09/22 09:30:23;;;;;;;4.13;3.57;;;;;;;17.81;50.51;95044.13;5054164;28;20449;-82
2022/09/22 09:32:52;;;;;;;3.90;3.60;;;;;;;18.02;51.84;95046.25;5053442;28;20454;-80
2022/09/22 09:35:25;;;;;;;3.20;3.00;;;;;;;17.63;49.72;95047.78;5053919;28;20514;-80
2022/09/22 09:37:56;;;;;;;3.50;3.27;;;;;;;17.87;50.92;95043.44;5053845;28;20450;-79
2022/09/22 09:40:24;;;;;;;3.17;2.97;;;;;;;17.74;50.79;95041.34;5034877;28;20453;-79
2022/09/22 09:42:57;;;;;;;3.57;3.27;;;;;;;17.69;51.44;95033.06;5053518;28;20453;-81
2022/09/22 09:45:32;;;;;;;4.37;3.40;;;;;;;17.42;50.52;95038.72;5053841;28;20481;-79
2022/09/22 09:48:12;;;;;;;10.90;3.43;;;;;;;17.13;50.96;95039.25;5052090;28;20448;-81
2022/09/22 09:50:41;;;;;;;2.80;2.60;;;;;;;16.98;51.77;95036.41;5053674;28;20468;-81
2022/09/22 09:53:32;;;;;;;3.73;3.43;;;;;;;16.80;51.84;95033.13;5031922;28;20434;-80
2022/09/22 09:55:59;;;;;;;4.20;3.10;;;;;;;16.97;51.70;95040.06;5049211;28;20449;-82
2022/09/22 10:01:29;;;;;;;2.97;2.77;;;;;;;17.40;49.09;95025.63;5051149;28;20425;-83
2022/09/22 10:03:56;;;;;;;2.87;2.67;;;;;;;17.54;48.52;95026.75;5051178;28;20486;-83
2022/09/22 10:06:25;;;;;;;6.20;2.77;;;;;;;17.72;48.78;95024.75;5051168;28;20486;-83
2022/09/22 10:08:53;;;;;;;3.67;2.70;;;;;;;17.82;47.58;95017.41;5051560;28;21013;-81
2022/09/22 10:11:29;;;;;;;13.67;3.17;;;;;;;17.70;48.77;95010.84;5002288;28;20449;-81
2022/09/22 10:13:57;;;;;;;2.37;2.17;;;;;;;17.52;47.03;95007.53;5049653;28;20449;-86
2022/09/22 10:16:25;;;;;;;2.57;2.10;;;;;;;17.38;47.04;95009.06;5050845;28;20451;-82
2022/09/22 10:19:03;;;;;;;2.60;2.40;;;;;;;16.94;47.44;95000.63;5050892;28;20803;-82
2022/09/22 10:21:30;;;;;;;2.60;2.40;;;;;;;16.90;48.06;95007.28;5050909;28;20452;-82
2022/09/22 10:24:00;;;;;;;2.70;2.50;;;;;;;16.75;48.35;95006.25;5051005;28;20460;-82
2022/09/22 10:26:29;;;;;;;3.07;2.77;;;;;;;16.73;49.96;95009.91;5051465;28;20496;-82
2022/09/22 10:29:13;;;;;;;2.70;2.50;;;;;;;16.83;50.14;95000.97;5050939;28;20474;-82
2022/09/22 10:31:40;;;;;;;2.90;2.70;;;;;;;16.94;49.03;95003.28;5055292;28;20449;-82
2022/09/22 10:34:29;;;;;;;2.87;2.67;;;;;;;16.99;48.85;94988.53;5057315;28;20904;-81
2022/09/22 10:36:56;;;;;;;2.53;2.30;;;;;;;17.17;48.68;94992.84;5052919;28;20513;-82
2022/09/22 10:39:33;;;;;;;2.87;2.67;;;;;;;17.20;46.99;94987.19;5057131;28;20465;-82
2022/09/22 10:42:06;;;;;;;1.90;1.80;;;;;;;17.25;46.52;94992.81;5056677;28;20430;-82
2022/09/22 10:47:57;;;;;;;2.20;2.03;;;;;;;17.55;47.25;94978.00;5055672;28;21001;-82
2022/09/22 10:50:56;;;;;;;3.37;3.10;;;;;;;17.70;47.46;94979.00;5056421;28;20488;-82
2022/09/22 10:53:44;;;;;;;4.03;2.43;;;;;;;17.65;49.14;94986.63;5008852;28;20452;-81
2022/09/22 10:56:23;;;;;;;2.67;2.47;;;;;;;17.38;48.97;94979.88;4966697;28;20944;-81
2022/09/22 10:59:15;;;;;;;2.87;2.60;;;;;;;17.40;49.80;94971.75;5011639;28;20903;-82
2022/09/22 11:02:02;;;;;;;2.20;2.00;;;;;;;17.42;48.89;94967.94;5005844;28;20983;-83
2022/09/22 11:04:47;;;;;;;2.87;2.37;;;;;;;17.28;48.22;94969.44;5009623;28;20482;-82
2022/09/22 11:13:28;;;;;;;2.33;2.00;;;;;;;17.00;48.73;94965.50;4975348;28;20530;-82
2022/09/22 11:16:18;;;;;;;2.23;2.03;;;;;;;17.10;45.15;94965.34;5003032;28;20463;-79
2022/09/22 11:19:02;;;;;;;2.83;2.63;;;;;;;17.25;46.85;94959.16;5004543;28;20455;-82
2022/09/22 11:21:46;;;;;;;2.50;2.30;;;;;;;17.32;45.13;94954.84;5014291;28;20451;-82
2022/09/22 11:24:27;;;;;;;2.40;2.20;;;;;;;17.45;44.96;94949.00;5014449;28;20435;-82
2022/09/22 11:26:56;;;;;;;2.73;2.30;;;;;;;17.45;45.96;94943.72;5002309;28;20472;-82
2022/09/22 11:29:52;;;;;;;2.70;2.50;;;;;;;17.26;46.08;94954.69;4995154;28;20903;-81
2022/09/22 11:32:33;;;;;;;2.67;2.47;;;;;;;17.24;47.73;94946.91;5039811;28;20437;-83
2022/09/22 11:35:15;;;;;;;3.53;3.23;;;;;;;17.12;49.89;94948.28;5055903;28;20449;-82
2022/09/22 11:37:56;;;;;;;3.20;2.90;;;;;;;17.12;49.42;94942.13;5055958;28;20921;-82
2022/09/22 11:40:36;;;;;;;3.47;3.23;;;;;;;17.13;50.75;94943.78;5055328;28;20446;-82
2022/09/22 11:43:15;;;;;;;4.07;2.70;;;;;;;17.09;48.71;94940.66;5055173;28;20438;-82
2022/09/22 11:45:52;;;;;;;2.70;2.50;;;;;;;16.95;49.01;94926.25;5055322;28;20486;-82
2022/09/22 11:48:37;;;;;;;3.20;3.00;;;;;;;16.98;49.06;94935.69;5055362;28;20522;-82
2022/09/22 11:51:23;;;;;;;3.30;2.97;;;;;;;17.05;48.72;94926.06;5055834;28;20452;-83
2022/09/22 11:54:04;;;;;;;3.50;2.93;;;;;;;17.13;48.18;94922.59;5045175;28;20456;-82
2022/09/22 11:56:38;;;;;;;3.10;2.90;;;;;;;17.08;48.56;94919.63;5055233;28;20442;-81
2022/09/22 11:59:14;;;;;;;4.77;3.20;;;;;;;17.05;49.44;94918.09;5055961;28;20449;-82
2022/09/22 12:01:43;;;;;;;2.73;2.53;;;;;;;17.01;47.07;94925.56;5021197;28;20445;-81
2022/09/22 12:04:19;;;;;;;2.57;2.37;;;;;;;16.95;44.80;94931.56;5055776;28;20480;-81
2022/09/22 12:06:50;;;;;;;2.70;1.80;;;;;;;16.79;44.53;94922.81;5054222;28;20837;-82
2022/09/22 12:09:30;;;;;;;2.60;2.27;;;;;;;16.84;45.30;94928.44;5054040;28;20450;-82
2022/09/22 12:11:59;;;;;;;2.60;2.43;;;;;;;16.63;50.98;94929.72;5053885;28;20449;-81
2022/09/22 12:14:27;;;;;;;3.03;2.50;;;;;;;16.50;54.24;94933.88;5053840;28;20449;-81
2022/09/22 12:17:03;;;;;;;3.13;2.93;;;;;;;16.23;56.05;94937.66;5018549;28;20881;-82
2022/09/22 12:19:39;;;;;;;3.77;3.47;;;;;;;16.06;55.39;94934.97;5053492;28;20474;-81